Time;durP1;ratioP1;P1;durP2;ratioP2;P2;SDS_P1;SDS_P2;PMS_P1;PMS_P2;Temp;Humidity;BMP_temperature;BMP_pressure;BME280_temperature;BME280_humidity;BME280_pressure;Samples;Min_cycle;Max_cycle;Signal;HPM_P1;HPM_P2
2021/11/22 00:01:31;;;;;;;31.73;15.98;;;;;;;7.76;79.54;99151.72;4863342;29;20041;-64
2021/11/22 00:04:01;;;;;;;34.13;16.05;;;;;;;7.56;79.94;99123.75;4863558;29;20564;-64
2021/11/22 00:06:30;;;;;;;29.73;17.35;;;;;;;7.68;80.03;99164.41;4863289;29;20185;-64
2021/11/22 00:09:04;;;;;;;39.85;17.10;;;;;;;7.57;80.41;99155.94;4864065;29;20438;-64
2021/11/22 00:11:33;;;;;;;37.70;17.75;;;;;;;7.54;81.12;99161.00;4863187;29;20064;-64
2021/11/22 00:14:03;;;;;;;35.38;17.10;;;;;;;7.58;80.58;99167.78;4863224;29;20049;-64
2021/11/22 00:16:35;;;;;;;34.92;17.90;;;;;;;7.59;81.05;99172.00;4863288;29;20046;-65
2021/11/22 00:19:07;;;;;;;34.15;17.45;;;;;;;7.59;80.71;99174.53;4863136;29;20509;-65
2021/11/22 00:21:37;;;;;;;32.80;16.40;;;;;;;7.50;80.33;99179.59;4863063;29;20057;-65
2021/11/22 00:24:07;;;;;;;;;;;;;;;7.56;80.85;99168.63;4863346;29;20053;-65
2021/11/22 00:26:40;;;;;;;32.63;16.67;;;;;;;7.56;80.66;99174.53;4863011;29;20338;-65
2021/11/22 00:29:12;;;;;;;35.83;17.48;;;;;;;7.57;81.17;99171.16;4863155;29;20427;-65
2021/11/22 00:31:56;;;;;;;34.85;17.33;;;;;;;7.59;81.19;99174.53;4862841;29;20065;-65
2021/11/22 00:34:43;;;;;;;38.50;16.95;;;;;;;7.56;81.82;99169.44;4862737;29;20122;-64
2021/11/22 00:37:44;;;;;;;38.08;17.77;;;;;;;7.80;81.20;99183.91;4862547;29;20081;-65
2021/11/22 00:40:15;;;;;;;34.13;15.93;;;;;;;7.87;80.73;99181.38;4862683;29;20054;-65
2021/11/22 00:42:49;;;;;;;34.72;17.30;;;;;;;7.84;81.12;99181.41;4862929;29;20469;-65
2021/11/22 00:45:19;;;;;;;36.83;18.35;;;;;;;7.79;80.67;99188.16;4862541;29;20058;-64
2021/11/22 00:47:49;;;;;;;34.38;16.85;;;;;;;7.63;81.06;99186.41;4862959;29;20084;-64
2021/11/22 00:50:18;;;;;;;;;;;;;;;7.58;81.09;99188.09;4863179;29;20109;-64
2021/11/22 00:52:48;;;;;;;35.70;15.38;;;;;;;7.50;81.38;99174.53;4862757;29;19967;-65
2021/11/22 00:55:19;;;;;;;38.25;17.70;;;;;;;7.56;80.66;99189.75;4862364;29;20053;-64
2021/11/22 00:57:51;;;;;;;38.75;17.52;;;;;;;7.48;81.49;99181.28;4862467;29;20049;-64
2021/11/22 01:00:22;;;;;;;35.10;16.55;;;;;;;7.47;81.71;99194.81;4862372;29;20057;-64
2021/11/22 01:02:52;;;;;;;35.97;16.50;;;;;;;7.42;81.94;99196.47;4862333;29;20054;-64
2021/11/22 01:05:21;;;;;;;39.00;16.90;;;;;;;7.37;81.88;99193.06;4862464;29;20152;-65
2021/11/22 01:07:51;;;;;;;32.65;16.52;;;;;;;7.30;81.35;99191.34;4862224;29;20381;-65
2021/11/22 01:10:22;;;;;;;36.50;16.55;;;;;;;7.40;81.91;99198.19;4862156;29;20137;-65
2021/11/22 01:12:54;;;;;;;35.88;16.83;;;;;;;7.47;82.25;99197.34;4862449;29;20057;-65
2021/11/22 01:15:24;;;;;;;41.60;17.95;;;;;;;7.55;81.75;99200.78;4862014;29;20058;-64
2021/11/22 01:17:56;;;;;;;33.92;15.68;;;;;;;7.59;81.81;99199.94;4862549;29;20195;-64
2021/11/22 01:20:34;;;;;;;35.88;16.30;;;;;;;7.66;81.72;99196.56;4861962;29;20068;-64
2021/11/22 01:23:09;;;;;;;32.88;15.57;;;;;;;7.80;81.70;99205.06;4861990;29;20053;-64
2021/11/22 01:25:42;;;;;;;41.83;17.40;;;;;;;7.79;80.64;99208.47;4861872;29;20136;-64
2021/11/22 01:28:15;;;;;;;36.58;15.70;;;;;;;7.83;81.10;99200.00;4861906;29;20054;-65
2021/11/22 01:30:47;;;;;;;38.72;16.50;;;;;;;7.81;80.60;99196.63;4862149;29;20061;-64
2021/11/22 01:33:20;;;;;;;38.47;16.55;;;;;;;7.84;81.07;99191.56;4862121;29;20093;-64
2021/11/22 01:35:49;;;;;;;36.17;16.20;;;;;;;7.87;80.64;99201.69;4861947;29;20404;-64
2021/11/22 01:38:21;;;;;;;39.80;16.55;;;;;;;7.88;80.89;99193.25;4875845;29;20053;-65
2021/11/22 01:40:52;;;;;;;43.58;17.70;;;;;;;7.90;80.34;99204.25;4861692;29;20166;-64
2021/11/22 01:43:25;;;;;;;35.67;15.40;;;;;;;7.90;80.50;99205.94;4861637;29;20068;-65
2021/11/22 01:45:54;;;;;;;37.85;16.98;;;;;;;7.93;80.69;99206.81;4861831;29;20054;-65
2021/11/22 01:48:27;;;;;;;36.30;16.73;;;;;;;7.93;80.61;99201.72;4861390;29;20110;-64
2021/11/22 01:50:56;;;;;;;34.85;16.02;;;;;;;8.02;80.41;99201.75;4861516;29;20068;-64
2021/11/22 01:53:29;;;;;;;38.80;16.98;;;;;;;7.96;79.47;99199.22;4861799;29;20523;-64
2021/11/22 01:56:20;;;;;;;36.10;15.70;;;;;;;7.84;79.96;99173.78;4861679;29;20516;-65
2021/11/22 01:58:53;;;;;;;35.47;16.88;;;;;;;7.96;79.43;99196.66;4861384;29;20109;-64
2021/11/22 02:01:23;;;;;;;33.08;16.02;;;;;;;7.91;79.28;99198.34;4861419;29;20059;-64
2021/11/22 02:03:56;;;;;;;36.53;16.70;;;;;;;7.87;80.05;99195.81;4861431;29;20057;-64
2021/11/22 02:06:25;;;;;;;34.70;16.42;;;;;;;7.63;80.03;99181.31;4861617;29;20535;-64
2021/11/22 02:08:54;;;;;;;38.30;15.97;;;;;;;7.62;79.94;99192.34;4861572;29;20057;-64
2021/11/22 02:11:35;;;;;;;34.13;16.45;;;;;;;7.45;80.14;99188.88;4861841;29;20157;-64
2021/11/22 02:14:07;;;;;;;39.88;16.90;;;;;;;7.32;80.89;99185.44;4861330;29;20045;-64
2021/11/22 02:16:37;;;;;;;30.33;15.38;;;;;;;7.37;80.91;99188.84;4861507;29;20083;-64
2021/11/22 02:19:06;;;;;;;36.20;16.67;;;;;;;7.36;81.38;99196.47;4861244;29;20562;-65
2021/11/22 02:21:37;;;;;;;32.72;15.70;;;;;;;7.31;80.57;99193.06;4861203;29;20064;-65
2021/11/22 02:24:10;;;;;;;32.15;14.52;;;;;;;7.12;81.43;99196.34;4861216;29;20084;-65
2021/11/22 02:26:42;;;;;;;35.08;15.25;;;;;;;6.94;81.23;99196.25;4861147;29;20117;-65
2021/11/22 02:29:14;;;;;;;40.47;17.85;;;;;;;6.90;82.23;99192.00;4861369;29;20049;-65
2021/11/22 02:31:46;;;;;;;39.65;16.50;;;;;;;7.01;82.40;99203.03;4861440;29;20401;-65
2021/11/22 02:34:16;;;;;;;39.45;16.27;;;;;;;7.18;82.09;99196.38;4861325;29;20069;-65
2021/11/22 02:36:47;;;;;;;38.97;17.48;;;;;;;7.29;81.89;99194.75;4861358;29;20501;-66
2021/11/22 02:39:17;;;;;;;41.22;17.15;;;;;;;7.38;82.40;99202.41;4860960;29;20291;-65
2021/11/22 02:41:49;;;;;;;42.60;18.25;;;;;;;7.36;82.40;99193.94;4861002;29;20140;-65
2021/11/22 02:44:19;;;;;;;33.78;16.23;;;;;;;7.48;81.74;99209.22;4861024;29;20061;-65
2021/11/22 02:46:48;;;;;;;39.53;17.45;;;;;;;7.48;81.80;99211.75;4861280;29;20053;-65
2021/11/22 02:49:18;;;;;;;37.88;17.15;;;;;;;7.44;81.72;99210.03;4860911;29;20054;-64
2021/11/22 02:51:51;;;;;;;36.88;17.10;;;;;;;7.39;81.74;99204.94;4860988;29;20118;-64
2021/11/22 02:54:21;;;;;;;37.53;16.88;;;;;;;7.34;81.85;99203.25;4861196;29;20137;-64
2021/11/22 02:56:50;;;;;;;41.53;17.42;;;;;;;7.41;81.92;99210.03;4861150;29;20412;-64
2021/11/22 02:59:19;;;;;;;39.08;17.63;;;;;;;7.50;81.79;99215.16;4861547;29;20081;-64
2021/11/22 03:01:52;;;;;;;38.47;16.42;;;;;;;7.55;81.84;99208.41;4864439;29;20052;-64
2021/11/22 03:04:32;;;;;;;39.50;16.23;;;;;;;7.60;81.62;99211.81;4864402;29;20060;-64
2021/11/22 03:07:06;;;;;;;35.92;17.30;;;;;;;7.63;81.47;99214.34;4864355;29;20144;-64
2021/11/22 03:09:37;;;;;;;35.65;15.40;;;;;;;7.73;80.91;99217.75;4864244;29;20109;-65
2021/11/22 03:12:10;;;;;;;34.97;16.02;;;;;;;7.81;80.86;99216.94;4864272;29;20054;-65
2021/11/22 03:14:40;;;;;;;35.42;15.88;;;;;;;7.86;81.79;99222.03;4864032;29;20075;-65
2021/11/22 03:17:12;;;;;;;38.08;16.63;;;;;;;7.90;80.70;99221.19;4864453;29;20564;-65
2021/11/22 03:19:44;;;;;;;41.05;17.48;;;;;;;7.95;80.93;99219.50;4863978;29;20144;-64
2021/11/22 03:22:18;;;;;;;34.80;15.85;;;;;;;8.04;80.71;99224.59;4864295;29;20408;-64
2021/11/22 03:24:47;;;;;;;39.45;16.63;;;;;;;8.10;80.22;99230.56;4864019;29;20080;-64
2021/11/22 03:27:17;;;;;;;30.17;13.82;;;;;;;8.08;80.14;99224.63;4638468;23;20425;-65
2021/11/22 03:29:49;;;;;;;34.03;16.02;;;;;;;8.07;79.98;99222.94;4919981;29;20056;-64
2021/11/22 03:32:19;;;;;;;35.13;15.50;;;;;;;8.02;79.55;99222.06;4920174;29;20052;-64
2021/11/22 03:34:48;;;;;;;32.85;15.13;;;;;;;7.96;79.37;99227.16;4920009;29;20166;-64
2021/11/22 03:37:22;;;;;;;33.42;15.57;;;;;;;7.95;79.09;99230.53;4920167;29;20131;-64
2021/11/22 03:39:54;;;;;;;36.13;16.20;;;;;;;8.01;79.79;99235.59;4919539;29;20064;-64
2021/11/22 03:42:36;;;;;;;35.88;16.65;;;;;;;8.04;79.58;99240.69;4919877;29;20087;-64
2021/11/22 03:45:08;;;;;;;39.25;16.33;;;;;;;8.07;79.34;99240.72;4919844;29;20059;-63
2021/11/22 03:47:41;;;;;;;35.08;16.23;;;;;;;8.03;78.94;99240.72;4919767;29;20056;-64
2021/11/22 03:50:13;;;;;;;36.08;15.43;;;;;;;8.03;79.51;99241.56;4919674;29;20048;-63
2021/11/22 03:52:47;;;;;;;34.08;16.20;;;;;;;7.99;78.93;99247.47;4919723;29;20486;-65
2021/11/22 03:55:20;;;;;;;32.72;15.90;;;;;;;7.98;79.08;99245.78;4919867;29;20064;-64
2021/11/22 03:57:50;;;;;;;37.45;16.50;;;;;;;8.01;79.53;99250.84;4672840;23;20063;-67
2021/11/22 04:00:24;;;;;;;35.42;15.00;;;;;;;7.98;79.78;99250.88;4919404;29;20048;-67
2021/11/22 04:02:58;;;;;;;32.03;16.83;;;;;;;8.02;79.53;99251.72;4919608;29;20135;-67
2021/11/22 04:05:28;;;;;;;35.47;14.75;;;;;;;8.02;78.96;99247.47;4919442;29;20049;-66
2021/11/22 04:08:02;;;;;;;34.42;15.27;;;;;;;8.01;79.46;99245.78;4919449;29;20044;-66
2021/11/22 04:10:31;;;;;;;35.15;15.27;;;;;;;8.06;79.43;99251.72;4919103;29;20044;-67
2021/11/22 04:13:01;;;;;;;30.65;14.60;;;;;;;7.95;79.86;99261.03;4919540;29;20058;-65
2021/11/22 04:15:30;;;;;;;31.60;15.63;;;;;;;7.95;80.22;99261.03;4902867;29;20052;-66
2021/11/22 04:18:00;;;;;;;34.72;15.73;;;;;;;8.08;79.50;99267.84;4902731;29;20087;-66
2021/11/22 04:20:29;;;;;;;31.88;14.73;;;;;;;8.06;79.89;99266.97;4919190;29;20104;-66
2021/11/22 04:23:04;;;;;;;35.72;15.52;;;;;;;8.01;80.12;99266.09;4919576;29;20060;-66
2021/11/22 04:25:37;;;;;;;34.15;15.38;;;;;;;7.98;79.20;99263.56;4919085;29;20052;-67
2021/11/22 04:28:10;;;;;;;34.78;15.63;;;;;;;8.11;79.27;99272.91;4919146;29;20052;-66
2021/11/22 04:30:43;;;;;;;35.30;15.00;;;;;;;8.13;80.08;99273.75;4919559;29;20375;-66
2021/11/22 04:33:13;;;;;;;33.28;14.48;;;;;;;8.20;79.78;99281.41;4918993;29;20052;-66
2021/11/22 04:35:43;;;;;;;34.10;15.13;;;;;;;8.20;79.58;99271.25;4918950;29;20062;-67
2021/11/22 04:38:14;;;;;;;38.60;16.42;;;;;;;8.24;79.73;99278.03;4918791;29;20139;-67
2021/11/22 04:40:44;;;;;;;31.10;14.07;;;;;;;8.24;79.30;99271.25;4919080;29;20409;-66
2021/11/22 04:43:13;;;;;;;30.88;15.15;;;;;;;8.26;79.23;99278.88;4918805;29;20173;-67
2021/11/22 04:45:43;;;;;;;35.95;14.50;;;;;;;8.03;79.49;99255.97;4918742;29;20048;-66
2021/11/22 04:48:13;;;;;;;33.17;14.88;;;;;;;8.17;79.43;99291.56;4918729;29;20055;-66
2021/11/22 04:50:42;;;;;;;22.60;11.32;;;;;;;8.04;79.77;99286.44;4918532;29;20053;-65
2021/11/22 04:53:13;;;;;;;35.08;15.63;;;;;;;7.97;79.24;99294.91;4918814;29;20104;-66
2021/11/22 04:55:43;;;;;;;30.63;14.15;;;;;;;7.94;79.04;99294.88;4918823;29;20052;-67
2021/11/22 04:58:12;;;;;;;33.47;15.73;;;;;;;7.92;78.98;99300.78;4918376;29;20056;-66
2021/11/22 05:00:42;;;;;;;31.55;15.43;;;;;;;7.91;79.21;99305.06;4918728;29;20049;-66
2021/11/22 05:03:15;;;;;;;32.03;14.45;;;;;;;7.93;79.73;99299.97;4918331;29;20082;-66
2021/11/22 05:05:47;;;;;;;34.88;15.32;;;;;;;7.94;79.10;99305.03;4918396;29;20064;-66
2021/11/22 05:08:18;;;;;;;34.95;14.70;;;;;;;7.94;80.15;99299.97;4918657;29;20158;-66
2021/11/22 05:10:51;;;;;;;31.98;15.13;;;;;;;7.99;79.93;99295.75;4918519;29;20498;-67
2021/11/22 05:13:23;;;;;;;31.88;13.95;;;;;;;8.13;79.84;99316.13;4918257;29;20048;-66
2021/11/22 05:15:56;;;;;;;35.67;15.93;;;;;;;8.13;79.19;99307.66;4918537;29;20490;-66
2021/11/22 05:18:25;;;;;;;31.95;15.05;;;;;;;7.96;79.66;99302.53;4918381;29;20082;-66
2021/11/22 05:20:55;;;;;;;29.58;13.73;;;;;;;7.77;80.13;99311.78;4918092;29;20104;-66
2021/11/22 05:23:26;;;;;;;30.80;13.68;;;;;;;7.72;80.54;99313.44;4917491;29;20056;-66
2021/11/22 05:25:59;;;;;;;30.42;14.25;;;;;;;7.70;80.41;99302.41;4918073;29;20139;-66
2021/11/22 05:28:31;;;;;;;32.72;14.75;;;;;;;7.90;80.77;99313.50;4918036;29;20059;-67
2021/11/22 05:31:00;;;;;;;31.27;13.82;;;;;;;7.94;80.61;99315.19;4917987;29;20052;-66
2021/11/22 05:33:34;;;;;;;32.70;15.75;;;;;;;8.02;80.30;99318.63;4918107;29;20083;-66
2021/11/22 05:36:04;;;;;;;35.15;15.20;;;;;;;8.03;80.17;99327.13;4918132;29;20502;-66
2021/11/22 05:38:37;;;;;;;34.20;15.23;;;;;;;7.83;79.80;99334.66;4917903;29;20047;-66
2021/11/22 05:41:13;;;;;;;31.60;14.63;;;;;;;7.77;80.01;99349.88;4918347;29;20056;-67
2021/11/22 05:43:43;;;;;;;34.97;15.65;;;;;;;7.72;80.72;99336.31;4917696;29;20048;-67
2021/11/22 05:46:15;;;;;;;34.45;14.77;;;;;;;7.77;80.53;99337.19;4900987;29;20062;-67
2021/11/22 05:48:47;;;;;;;34.85;15.05;;;;;;;7.82;80.41;99335.47;4918192;29;20596;-68
2021/11/22 05:51:18;;;;;;;33.85;15.30;;;;;;;7.83;80.42;99339.72;4918000;29;20102;-66
2021/11/22 05:53:50;;;;;;;33.05;15.75;;;;;;;7.89;80.47;99347.34;4917621;29;20565;-68
2021/11/22 05:56:22;;;;;;;37.70;15.90;;;;;;;7.80;80.27;99351.53;4917860;29;20080;-66
2021/11/22 05:58:54;;;;;;;38.13;16.33;;;;;;;7.67;80.26;99344.72;4898867;29;20085;-67
2021/11/22 06:01:24;;;;;;;34.60;14.43;;;;;;;7.61;80.19;99345.53;4898652;29;20076;-66
2021/11/22 06:03:53;;;;;;;;;;;;;;;7.75;80.33;99361.69;4898980;29;20056;-66
2021/11/22 06:06:26;;;;;;;46.80;17.83;;;;;;;7.74;79.84;99359.16;4898996;29;19971;-66
2021/11/22 06:08:56;;;;;;;68.55;28.05;;;;;;;7.76;80.29;99353.25;4898483;29;20128;-66
2021/11/22 06:11:26;;;;;;;92.32;32.10;;;;;;;7.89;80.64;99362.59;4898470;29;20056;-67
2021/11/22 06:13:58;;;;;;;102.85;36.83;;;;;;;7.92;80.47;99371.94;4899010;29;20518;-66
2021/11/22 06:16:28;;;;;;;64.07;26.15;;;;;;;7.90;79.97;99378.69;4898434;29;20079;-66
2021/11/22 06:19:00;;;;;;;35.78;17.42;;;;;;;7.89;80.22;99380.38;4898372;29;20053;-66
2021/11/22 06:21:33;;;;;;;33.45;15.45;;;;;;;7.89;80.25;99377.84;4898295;29;20082;-67
2021/11/22 06:24:05;;;;;;;36.03;16.70;;;;;;;7.92;79.71;99382.09;4898329;29;20056;-66
2021/11/22 06:26:37;;;;;;;39.72;17.83;;;;;;;7.89;79.10;99394.81;4898548;29;20486;-66
2021/11/22 06:29:08;;;;;;;50.65;23.88;;;;;;;7.87;79.84;99383.78;4898987;29;20087;-66
2021/11/22 06:31:38;;;;;;;39.55;17.63;;;;;;;7.92;79.71;99403.28;4898487;29;20059;-66
2021/11/22 06:34:10;;;;;;;38.67;16.33;;;;;;;7.95;79.96;99403.31;4882074;29;20052;-68
2021/11/22 06:36:40;;;;;;;33.42;15.65;;;;;;;7.91;79.00;99406.69;4902169;29;20139;-66
2021/11/22 06:39:14;;;;;;;36.25;14.57;;;;;;;7.92;79.53;99410.91;4902079;29;20049;-68
2021/11/22 06:41:46;;;;;;;32.38;15.50;;;;;;;8.00;80.03;99414.34;4902110;29;20140;-67
2021/11/22 06:44:15;;;;;;;36.40;15.75;;;;;;;7.98;79.40;99418.56;4902082;29;20052;-67
2021/11/22 06:46:48;;;;;;;35.33;14.82;;;;;;;8.02;79.89;99425.34;4901944;29;20481;-67
2021/11/22 06:49:21;;;;;;;32.13;15.10;;;;;;;8.00;79.41;99427.06;4902308;29;20467;-66
2021/11/22 06:51:53;;;;;;;32.78;14.93;;;;;;;8.02;79.76;99425.34;4901864;29;20052;-67
2021/11/22 06:54:27;;;;;;;32.90;13.50;;;;;;;8.08;79.20;99427.94;4901951;29;20498;-66
2021/11/22 06:56:57;;;;;;;32.17;14.32;;;;;;;8.07;79.71;99428.78;4905645;29;20067;-67
2021/11/22 06:59:27;;;;;;;32.60;15.75;;;;;;;7.98;79.45;99433.81;4920499;29;20052;-66
2021/11/22 07:01:58;;;;;;;30.10;14.88;;;;;;;8.06;79.63;99427.06;4920929;29;20059;-67
2021/11/22 07:04:31;;;;;;;34.83;15.90;;;;;;;8.00;79.29;99416.88;4920826;29;20053;-67
2021/11/22 07:07:04;;;;;;;34.92;15.70;;;;;;;7.90;79.59;99432.91;4920547;29;20138;-67
2021/11/22 07:09:38;;;;;;;33.13;15.13;;;;;;;7.85;80.22;99437.13;4920387;29;20100;-67
2021/11/22 07:12:11;;;;;;;34.05;15.52;;;;;;;7.89;80.37;99441.38;4920451;29;20052;-67
2021/11/22 07:14:44;;;;;;;37.05;15.38;;;;;;;7.95;79.94;99436.34;4920414;29;20063;-67
2021/11/22 07:17:14;;;;;;;36.50;15.23;;;;;;;7.92;80.31;99438.84;4920334;29;20052;-67
2021/11/22 07:19:44;;;;;;;35.92;13.88;;;;;;;7.94;80.26;99437.16;4919857;29;20060;-65
2021/11/22 07:22:14;;;;;;;35.28;15.77;;;;;;;7.91;79.97;99437.16;4920016;29;20052;-67
2021/11/22 07:24:46;;;;;;;39.75;16.35;;;;;;;7.93;80.00;99430.41;4920285;29;20080;-66
2021/11/22 07:27:16;;;;;;;41.38;16.80;;;;;;;7.93;79.93;99439.72;4920163;29;20121;-67
2021/11/22 07:29:46;;;;;;;34.70;15.55;;;;;;;7.82;80.06;99437.09;4920276;29;20413;-67
2021/11/22 07:32:15;;;;;;;34.10;15.77;;;;;;;7.79;80.63;99442.19;4920067;29;20135;-67
2021/11/22 07:34:48;;;;;;;35.28;15.30;;;;;;;7.76;80.47;99441.28;4920083;29;20097;-67
2021/11/22 07:37:18;;;;;;;39.30;16.42;;;;;;;7.69;80.43;99430.25;4919940;29;20139;-67
2021/11/22 07:39:49;;;;;;;31.67;14.73;;;;;;;7.87;80.52;99445.59;4919718;29;20044;-67
2021/11/22 07:42:18;;;;;;;32.83;14.82;;;;;;;8.03;80.47;99442.31;4920133;29;20142;-67
2021/11/22 07:44:49;;;;;;;;;;;;;;;8.09;80.17;99447.44;4919942;29;20139;-67
2021/11/22 07:47:19;;;;;;;34.60;15.20;;;;;;;8.16;80.04;99447.47;4919682;29;19927;-67
2021/11/22 07:49:48;;;;;;;30.92;14.57;;;;;;;8.22;79.61;99455.13;4919992;29;20056;-67
2021/11/22 07:52:19;;;;;;;35.38;15.60;;;;;;;8.20;79.76;99449.19;4919834;29;20508;-67
2021/11/22 07:54:50;;;;;;;40.75;15.23;;;;;;;8.26;79.21;99454.28;4919882;29;20135;-67
2021/11/22 07:57:19;;;;;;;33.15;13.57;;;;;;;8.35;79.46;99445.03;4919257;29;20059;-68
2021/11/22 07:59:51;;;;;;;38.55;15.60;;;;;;;8.30;79.14;99450.97;4919801;29;20064;-67
2021/11/22 08:02:22;;;;;;;37.00;16.52;;;;;;;8.29;79.66;99449.25;4919415;29;20060;-67
2021/11/22 08:04:51;;;;;;;37.33;16.05;;;;;;;8.41;79.25;99445.06;4919696;29;20060;-67
2021/11/22 08:07:22;;;;;;;38.33;15.63;;;;;;;8.51;79.08;99451.91;4919243;29;20044;-67
2021/11/22 08:09:57;;;;;;;38.88;16.85;;;;;;;8.61;79.33;99447.69;4902367;29;20052;-69
2021/11/22 08:12:28;;;;;;;41.80;16.30;;;;;;;8.66;78.31;99453.66;4919048;29;20056;-67
2021/11/22 08:15:01;;;;;;;39.33;16.92;;;;;;;8.60;78.92;99456.16;4919188;29;20051;-68
2021/11/22 08:17:31;;;;;;;38.60;16.08;;;;;;;8.71;78.81;99454.47;4919412;29;20458;-66
2021/11/22 08:20:01;;;;;;;39.05;17.10;;;;;;;8.77;78.25;99454.50;4919057;29;20119;-68
2021/11/22 08:22:30;;;;;;;40.38;17.83;;;;;;;8.73;78.38;99463.81;4919059;29;20095;-68
2021/11/22 08:25:05;;;;;;;34.75;16.73;;;;;;;8.78;78.24;99466.41;4919339;29;20499;-65
2021/11/22 08:27:35;;;;;;;41.53;17.75;;;;;;;8.70;77.83;99473.16;4918963;29;20143;-64
2021/11/22 08:30:07;;;;;;;41.72;17.27;;;;;;;8.78;77.52;99467.22;4918724;29;20490;-65
2021/11/22 08:32:37;;;;;;;46.35;18.67;;;;;;;8.87;78.08;99466.44;4919248;29;20080;-65
2021/11/22 08:35:08;;;;;;;42.65;18.40;;;;;;;8.70;77.66;99471.47;4918794;29;20127;-65
2021/11/22 08:37:38;;;;;;;42.17;17.45;;;;;;;8.71;78.61;99479.91;4919134;29;20102;-66
2021/11/22 08:40:12;;;;;;;39.88;16.27;;;;;;;8.65;78.16;99487.56;4918765;29;20064;-65
2021/11/22 08:42:42;;;;;;;41.80;16.50;;;;;;;8.73;78.55;99498.63;4918864;29;20143;-65
2021/11/22 08:45:11;;;;;;;43.30;18.98;;;;;;;8.80;78.10;99495.25;4918631;29;20051;-65
2021/11/22 08:47:41;;;;;;;34.50;16.70;;;;;;;8.76;78.91;99498.59;4918722;29;20056;-65
2021/11/22 08:50:11;;;;;;;43.22;17.67;;;;;;;8.81;78.55;99501.16;4918893;29;20063;-65
2021/11/22 08:52:40;;;;;;;39.53;17.02;;;;;;;8.85;78.97;99493.56;4918779;29;20472;-65
2021/11/22 08:55:14;;;;;;;41.20;17.60;;;;;;;9.00;78.65;99497.84;4918744;29;20406;-65
2021/11/22 08:57:44;;;;;;;40.15;17.90;;;;;;;9.15;78.36;99503.81;4917267;29;20447;-65
2021/11/22 09:00:17;;;;;;;44.92;17.58;;;;;;;9.22;78.23;99510.63;4918359;29;20052;-65
2021/11/22 09:02:47;;;;;;;43.50;19.52;;;;;;;9.06;78.24;99519.06;4918294;29;20379;-65
2021/11/22 09:05:17;;;;;;;38.75;18.60;;;;;;;8.92;78.02;99510.56;4918438;29;20071;-68
2021/11/22 09:07:47;;;;;;;45.92;17.55;;;;;;;8.94;78.25;99521.59;4918198;29;20157;-67
2021/11/22 09:10:18;;;;;;;39.22;18.58;;;;;;;9.08;77.69;99525.00;4917824;29;20048;-67
2021/11/22 09:12:47;;;;;;;38.10;17.80;;;;;;;9.13;77.98;99525.88;4918291;29;20052;-66
2021/11/22 09:15:20;;;;;;;42.90;17.52;;;;;;;9.19;78.02;99525.88;4917820;29;20413;-67
2021/11/22 09:17:52;;;;;;;41.42;17.77;;;;;;;9.20;78.50;99532.69;4918141;29;20060;-67
2021/11/22 09:20:25;;;;;;;43.38;19.40;;;;;;;9.35;78.40;99530.19;4917336;29;20059;-67
2021/11/22 09:22:57;;;;;;;44.17;18.00;;;;;;;9.34;78.15;99531.00;4917833;29;20148;-67
2021/11/22 09:25:30;;;;;;;44.65;18.70;;;;;;;9.42;78.06;99524.25;4918151;29;20490;-66
2021/11/22 09:28:00;;;;;;;45.03;19.67;;;;;;;9.40;77.67;99532.72;4917918;29;20054;-67
2021/11/22 09:30:33;;;;;;;44.65;19.20;;;;;;;9.33;77.16;99526.75;4918178;29;20127;-67
2021/11/22 09:33:04;;;;;;;41.35;17.48;;;;;;;9.48;77.10;99522.56;4917661;29;20082;-67
2021/11/22 09:35:33;;;;;;;42.30;17.85;;;;;;;9.56;77.08;99528.47;4917819;29;20055;-67
2021/11/22 09:38:03;;;;;;;;;;;;;;;9.68;76.69;99531.03;4901661;29;20504;-67
2021/11/22 09:40:34;;;;;;;40.78;18.30;;;;;;;9.72;77.19;99532.72;4917680;29;20352;-67
2021/11/22 09:43:08;;;;;;;41.33;17.40;;;;;;;9.59;76.08;99531.03;4917687;29;20170;-67
2021/11/22 09:45:44;;;;;;;46.17;19.83;;;;;;;9.44;76.91;99532.72;4917702;29;20056;-67
2021/11/22 09:48:14;;;;;;;41.75;18.45;;;;;;;9.51;76.96;99532.72;4917660;29;20052;-67
2021/11/22 09:50:46;;;;;;;;;;;;;;;9.54;77.34;99528.50;4918324;29;20384;-67
2021/11/22 09:53:15;;;;;;;40.53;17.98;;;;;;;9.60;76.61;99530.22;4917838;29;19923;-67
2021/11/22 09:55:46;;;;;;;43.88;17.83;;;;;;;9.43;76.51;99533.56;4917591;29;20048;-67
2021/11/22 09:58:16;;;;;;;40.45;17.45;;;;;;;9.37;76.96;99525.94;4917163;29;20090;-67
2021/11/22 10:00:51;;;;;;;41.53;18.45;;;;;;;9.42;76.89;99534.44;4917379;29;20075;-67
2021/11/22 10:03:24;;;;;;;43.72;17.92;;;;;;;9.42;77.04;99539.53;4917474;29;20060;-67
2021/11/22 10:05:56;;;;;;;39.90;18.48;;;;;;;9.61;77.41;99539.53;4917203;29;20213;-67
2021/11/22 10:08:30;;;;;;;42.60;18.70;;;;;;;9.78;76.42;99540.38;4917257;29;20131;-67
2021/11/22 10:11:04;;;;;;;39.33;19.05;;;;;;;9.77;76.74;99541.22;4917323;29;20048;-67
2021/11/22 10:13:38;;;;;;;44.42;19.13;;;;;;;9.77;76.32;99531.88;4917631;29;20052;-67
2021/11/22 10:16:23;;;;;;;38.25;19.70;;;;;;;9.93;76.18;99533.56;4917538;29;20060;-67
2021/11/22 10:19:02;;;;;;;41.25;19.00;;;;;;;9.95;76.33;99536.16;4917218;29;20095;-67
2021/11/22 10:21:38;;;;;;;36.22;18.85;;;;;;;10.04;75.58;99541.22;4917223;29;20096;-67
2021/11/22 10:24:09;;;;;;;41.50;19.83;;;;;;;9.99;75.91;99535.28;4917508;29;20056;-67
2021/11/22 10:26:41;;;;;;;41.85;20.73;;;;;;;9.92;75.62;99538.69;4917153;29;20151;-67
2021/11/22 10:29:12;;;;;;;40.95;19.25;;;;;;;10.04;75.95;99538.69;4917015;29;20052;-67
2021/11/22 10:31:42;;;;;;;41.13;18.70;;;;;;;10.13;75.42;99536.16;4917073;29;20052;-67
2021/11/22 10:34:16;;;;;;;40.85;18.77;;;;;;;10.09;74.91;99540.38;4917043;29;20467;-67
2021/11/22 10:36:55;;;;;;;39.33;16.83;;;;;;;9.98;75.32;99541.25;4917013;29;20056;-67
2021/11/22 10:39:26;;;;;;;39.17;17.30;;;;;;;10.05;75.02;99535.28;4916953;29;20059;-67
2021/11/22 10:41:58;;;;;;;41.75;17.35;;;;;;;10.06;75.13;99542.06;4917127;29;20070;-67
2021/11/22 10:44:31;;;;;;;35.45;16.52;;;;;;;10.07;75.02;99546.34;4916883;29;20087;-68
2021/11/22 10:47:11;;;;;;;36.88;17.35;;;;;;;10.08;75.12;99543.78;4916869;29;20074;-68
2021/11/22 10:49:43;;;;;;;39.38;17.48;;;;;;;10.00;75.04;99537.00;4916784;29;20052;-67
2021/11/22 10:52:25;;;;;;;37.92;15.57;;;;;;;10.02;nan;99538.69;4917017;29;20063;-67
2021/11/22 10:54:55;;;;;;;42.35;17.60;;;;;;;10.10;74.56;99542.06;4917085;29;20049;-67
2021/11/22 10:57:33;;;;;;;38.17;17.85;;;;;;;10.17;74.79;99544.66;4916694;29;20092;-67
2021/11/22 11:00:28;;;;;;;45.03;18.60;;;;;;;10.17;74.55;99540.41;4917156;29;20407;-67
2021/11/22 11:03:08;;;;;;;42.33;17.02;;;;;;;10.25;74.53;99545.47;4916851;29;20502;-67
2021/11/22 11:05:40;;;;;;;38.65;17.45;;;;;;;10.23;73.87;99548.03;4917222;29;20064;-66
2021/11/22 11:08:12;;;;;;;39.65;16.95;;;;;;;10.19;74.12;99556.56;4916642;29;20060;-67
2021/11/22 11:10:49;;;;;;;37.80;17.10;;;;;;;10.19;73.68;99556.56;4917095;29;20059;-67
2021/11/22 11:13:46;;;;;;;32.55;15.90;;;;;;;10.05;73.71;99563.34;4916783;29;20056;-67
2021/11/22 11:16:20;;;;;;;35.95;16.48;;;;;;;10.10;73.71;99556.53;4916822;29;20056;-67
2021/11/22 11:18:57;;;;;;;38.03;16.67;;;;;;;10.15;74.01;99562.50;4916774;29;20134;-67
2021/11/22 11:21:33;;;;;;;37.60;16.80;;;;;;;10.25;73.83;99561.63;4919141;29;20048;-67
2021/11/22 11:24:04;;;;;;;39.92;17.23;;;;;;;10.27;73.74;99561.66;4920158;29;20099;-67
2021/11/22 11:26:38;;;;;;;37.60;17.20;;;;;;;10.21;73.74;99564.19;4920188;29;20056;-68
2021/11/22 11:29:13;;;;;;;36.92;17.42;;;;;;;10.31;73.64;99559.09;4920563;29;20064;-67
2021/11/22 11:31:51;;;;;;;34.15;16.58;;;;;;;10.23;73.75;99553.13;4920477;29;20135;-67
2021/11/22 11:34:29;;;;;;;37.55;16.50;;;;;;;10.36;73.90;99557.38;4920278;29;20052;-68
2021/11/22 11:37:08;;;;;;;38.05;16.58;;;;;;;10.30;73.79;99553.97;4920000;29;20144;-67
2021/11/22 11:40:13;;;;;;;31.77;15.43;;;;;;;9.95;74.03;99541.25;4920009;29;20074;-67
2021/11/22 11:43:40;;;;;;;34.45;15.68;;;;;;;9.87;74.18;99543.78;4919931;29;20516;-67
2021/11/22 11:46:24;;;;;;;35.28;16.48;;;;;;;9.84;74.57;99558.22;4916562;29;20413;-67
2021/11/22 11:48:59;;;;;;;37.72;16.77;;;;;;;9.79;74.83;99560.78;4919838;29;20079;-67
2021/11/22 11:51:38;;;;;;;33.35;16.20;;;;;;;9.88;75.11;99554.84;4919782;29;20056;-68